TimeCST,TemperatureF,Dew PointF,Humidity,Sea Level PressureIn,VisibilityMPH,Wind Direction,Wind SpeedMPH,Gust SpeedMPH,PrecipitationIn,Events,Conditions,WindDirDegrees,DateUTC
12:15 AM,22.1,19.4,89,29.97,4.0,WNW,8.1,-,N/A,Snow,Light Snow,300,2013-01-13 06:15:00
12:35 AM,22.1,19.4,89,29.95,5.0,NW,9.2,-,N/A,Snow,Light Snow,320,2013-01-13 06:35:00
12:55 AM,22.1,19.2,89,29.95,5.0,NNW,9.2,-,N/A,Snow,Light Snow,330,2013-01-13 06:55:00
1:15 AM,22.1,18.5,86,29.93,10.0,North,5.8,-,N/A,Snow,Light Snow,360,2013-01-13 07:15:00
1:35 AM,22.1,18.3,85,29.96,10.0,NW,6.9,-,N/A,,Overcast,310,2013-01-13 07:35:00
1:55 AM,22.5,16.3,77,29.97,10.0,NW,9.2,-,N/A,,Overcast,310,2013-01-13 07:55:00
2:15 AM,22.3,14.9,73,29.99,10.0,NW,10.4,-,N/A,,Overcast,310,2013-01-13 08:15:00
2:35 AM,22.3,15.1,74,29.99,10.0,WNW,9.2,-,N/A,,Overcast,300,2013-01-13 08:35:00
2:55 AM,21.7,13.8,72,29.99,10.0,NW,8.1,-,N/A,,Overcast,310,2013-01-13 08:55:00
3:15 AM,21.7,14.0,72,29.98,10.0,NW,8.1,-,N/A,,Overcast,320,2013-01-13 09:15:00
3:35 AM,21.4,13.5,72,29.98,10.0,NW,9.2,-,N/A,,Overcast,320,2013-01-13 09:35:00
3:55 AM,21.2,13.1,71,29.98,10.0,WNW,9.2,-,N/A,,Overcast,300,2013-01-13 09:55:00
4:15 AM,21.2,13.1,71,29.98,10.0,NW,10.4,-,N/A,,Overcast,320,2013-01-13 10:15:00
4:35 AM,21.0,13.1,71,30.01,10.0,West,8.1,-,N/A,,Overcast,280,2013-01-13 10:35:00
4:55 AM,20.8,13.1,72,30.01,10.0,WNW,6.9,-,N/A,,Overcast,300,2013-01-13 10:55:00
5:15 AM,20.3,12.9,73,30.01,10.0,WNW,6.9,-,N/A,,Overcast,300,2013-01-13 11:15:00
5:35 AM,20.3,12.9,73,30.01,10.0,NW,8.1,-,N/A,,Overcast,310,2013-01-13 11:35:00
5:55 AM,20.3,13.1,74,30.02,10.0,WNW,5.8,-,N/A,,Overcast,290,2013-01-13 11:55:00
6:15 AM,19.9,12.7,74,30.02,10.0,WNW,9.2,-,N/A,,Overcast,290,2013-01-13 12:15:00
6:35 AM,19.0,12.2,75,30.02,10.0,West,10.4,-,N/A,,Overcast,280,2013-01-13 12:35:00
6:55 AM,18.3,11.3,74,30.03,10.0,WNW,11.5,-,N/A,,Overcast,290,2013-01-13 12:55:00
7:15 AM,18.0,10.9,74,30.04,10.0,WNW,9.2,-,N/A,,Overcast,290,2013-01-13 13:15:00
7:35 AM,17.6,10.4,73,30.07,10.0,WNW,10.4,-,N/A,,Overcast,290,2013-01-13 13:35:00
7:55 AM,17.2,9.9,73,30.08,10.0,WNW,6.9,-,N/A,,Overcast,290,2013-01-13 13:55:00
8:15 AM,17.1,9.3,72,30.08,10.0,WNW,10.4,-,N/A,,Overcast,290,2013-01-13 14:15:00
8:35 AM,16.7,8.6,70,30.09,10.0,West,11.5,-,N/A,,Overcast,280,2013-01-13 14:35:00
8:55 AM,16.7,8.6,70,30.09,10.0,WNW,10.4,-,N/A,,Overcast,300,2013-01-13 14:55:00
9:15 AM,16.2,7.9,70,30.08,10.0,WNW,10.4,-,N/A,,Overcast,290,2013-01-13 15:15:00
9:35 AM,16.7,8.4,70,30.07,10.0,WNW,12.7,16.1,N/A,,Overcast,290,2013-01-13 15:35:00
9:55 AM,16.7,8.1,69,30.07,10.0,WNW,10.4,-,N/A,,Overcast,300,2013-01-13 15:55:00
10:15 AM,16.7,8.4,70,30.08,10.0,WNW,9.2,-,N/A,,Overcast,300,2013-01-13 16:15:00
10:35 AM,16.7,8.4,70,30.09,10.0,West,10.4,-,N/A,,Overcast,270,2013-01-13 16:35:00
10:55 AM,16.7,8.2,69,30.09,10.0,West,10.4,-,N/A,,Overcast,270,2013-01-13 16:55:00
11:15 AM,17.8,8.2,66,30.07,10.0,WNW,12.7,16.1,N/A,,Scattered Clouds,290,2013-01-13 17:15:00
11:35 AM,18.0,8.2,66,30.07,10.0,West,11.5,17.3,N/A,,Clear,280,2013-01-13 17:35:00
11:55 AM,18.1,8.1,65,30.07,10.0,West,10.4,-,N/A,,Scattered Clouds,270,2013-01-13 17:55:00
12:15 PM,17.8,8.4,67,30.07,10.0,West,11.5,-,N/A,,Scattered Clouds,270,2013-01-13 18:15:00
12:55 PM,18.3,8.6,66,30.05,10.0,WNW,10.4,17.3,N/A,,Clear,290,2013-01-13 18:55:00
1:15 PM,18.5,8.6,65,30.06,10.0,WNW,11.5,-,N/A,,Clear,290,2013-01-13 19:15:00
1:35 PM,18.7,8.6,65,30.05,10.0,West,11.5,17.3,N/A,,Scattered Clouds,280,2013-01-13 19:35:00
1:55 PM,18.3,8.2,65,30.05,10.0,WNW,11.5,17.3,N/A,,Clear,290,2013-01-13 19:55:00
2:15 PM,18.5,7.7,63,30.06,10.0,WNW,16.1,20.7,N/A,,Clear,290,2013-01-13 20:15:00
2:35 PM,18.1,7.7,64,30.08,10.0,West,12.7,17.3,N/A,,Clear,280,2013-01-13 20:35:00
2:55 PM,18.0,7.3,63,30.10,10.0,West,12.7,19.6,N/A,,Clear,270,2013-01-13 20:55:00
3:15 PM,17.6,7.2,64,30.11,10.0,West,11.5,16.1,N/A,,Scattered Clouds,260,2013-01-13 21:15:00
3:35 PM,17.4,7.2,64,30.12,10.0,West,12.7,18.4,N/A,,Mostly Cloudy,280,2013-01-13 21:35:00
3:55 PM,16.7,7.3,67,30.12,10.0,West,13.8,-,N/A,,Mostly Cloudy,270,2013-01-13 21:55:00
4:15 PM,16.7,7.5,67,30.14,10.0,West,11.5,16.1,N/A,,Mostly Cloudy,270,2013-01-13 22:15:00
4:35 PM,15.8,7.3,69,30.14,10.0,WNW,10.4,16.1,N/A,,Scattered Clouds,290,2013-01-13 22:35:00
4:55 PM,15.6,7.0,69,30.15,10.0,West,10.4,-,N/A,,Scattered Clouds,280,2013-01-13 22:55:00
5:15 PM,15.3,6.6,69,30.16,10.0,West,11.5,21.9,N/A,,Scattered Clouds,280,2013-01-13 23:15:00
5:35 PM,15.3,5.9,67,30.18,10.0,West,10.4,-,N/A,,Clear,280,2013-01-13 23:35:00
5:55 PM,14.9,6.3,69,30.19,10.0,West,11.5,20.7,N/A,,Clear,270,2013-01-13 23:55:00
6:15 PM,14.9,5.9,68,30.19,10.0,West,9.2,-,N/A,,Clear,280,2013-01-14 00:15:00
6:35 PM,14.7,6.3,69,30.19,10.0,West,5.8,-,N/A,,Clear,270,2013-01-14 00:35:00
6:55 PM,14.5,6.6,71,30.20,10.0,West,8.1,-,N/A,,Scattered Clouds,270,2013-01-14 00:55:00
7:15 PM,14.4,5.9,69,30.20,10.0,West,9.2,17.3,N/A,,Clear,270,2013-01-14 01:15:00
7:35 PM,14.4,5.7,69,30.21,10.0,West,11.5,-,N/A,,Clear,270,2013-01-14 01:35:00
7:55 PM,14.0,5.7,70,30.22,10.0,West,10.4,-,N/A,,Clear,270,2013-01-14 01:55:00
8:15 PM,14.0,5.9,70,30.23,10.0,West,8.1,-,N/A,,Clear,280,2013-01-14 02:15:00
8:35 PM,13.8,5.7,70,30.23,10.0,West,9.2,-,N/A,,Clear,270,2013-01-14 02:35:00
8:55 PM,13.6,5.9,71,30.23,10.0,WNW,8.1,-,N/A,,Clear,290,2013-01-14 02:55:00
9:15 PM,13.5,5.9,72,30.24,10.0,West,8.1,-,N/A,,Clear,280,2013-01-14 03:15:00
9:35 PM,13.3,5.9,72,30.24,10.0,West,5.8,-,N/A,,Clear,280,2013-01-14 03:35:00
9:55 PM,13.1,6.1,74,30.24,10.0,WNW,6.9,-,N/A,,Clear,290,2013-01-14 03:55:00
10:15 PM,13.1,6.3,74,30.24,10.0,WNW,6.9,-,N/A,,Clear,290,2013-01-14 04:15:00
10:35 PM,13.1,6.3,74,30.24,10.0,WNW,6.9,-,N/A,,Clear,290,2013-01-14 04:35:00
11:15 PM,12.9,5.9,74,30.25,10.0,WNW,8.1,-,N/A,,Clear,300,2013-01-14 05:15:00
11:35 PM,12.9,6.3,75,30.27,10.0,WNW,8.1,-,N/A,,Clear,290,2013-01-14 05:35:00
11:55 PM,12.7,6.1,75,30.27,10.0,West,6.9,-,N/A,,Clear,280,2013-01-14 05:55:00